INTERACTIVE WEATHER
 METAR AND TAF INFORMATION
METAR FOR KSKF
ADDS - METARS form results

(0951 UTC 22 February 2019)
Data provider http://aviationweather.gov/metar/data/
 
METAR text: KSKF 220922Z AUTO 06007KT 8SM OVC006 11/11 A2989 RMK AO2 RAE02 OVC V BKN PRESFR SLP121 $
Conditions at: KSKF (KELLY AFB , TX, US) observed 0922 UTC 22 February 2019
Temperature: 11.0°C (52°F)
Dewpoint: 11.0°C (52°F) [RH = 100%]
Pressure (altimeter): 29.89 inches Hg (1012.3 mb)
[Sea-level pressure: 1012.1 mb]
Winds: from the ENE (60 degrees) at 8 MPH (7 knots; 3.6 m/s)
Visibility: 8 miles (13 km)
Ceiling: 600 feet AGL
Clouds: overcast cloud deck at 600 feet AGL
Weather:
SOME DATA ABOVE MAY BE INACCURATE!!!
"$" is an indication the sensor requires maintenance

METAR text: KSKF 220907Z AUTO 06004KT 7SM BKN007 11/11 A2991 RMK AO2 RAE02 CIG 007V011 SLP127 $
Conditions at: KSKF (KELLY AFB , TX, US) observed 0907 UTC 22 February 2019
Temperature: 11.0°C (52°F)
Dewpoint: 11.0°C (52°F) [RH = 100%]
Pressure (altimeter): 29.91 inches Hg (1013.0 mb)
[Sea-level pressure: 1012.7 mb]
Winds: from the ENE (60 degrees) at 5 MPH (4 knots; 2.1 m/s)
Visibility: 7 miles (11 km)
Ceiling: 700 feet AGL
Clouds: broken clouds at 700 feet AGL
Weather:
SOME DATA ABOVE MAY BE INACCURATE!!!
"$" is an indication the sensor requires maintenance

METAR text: KSKF 220902Z AUTO 05003KT 7SM BKN011 11/11 A2991 RMK AO2 RAE02 SLP127 $
Conditions at: KSKF (KELLY AFB , TX, US) observed 0902 UTC 22 February 2019
Temperature: 11.0°C (52°F)
Dewpoint: 11.0°C (52°F) [RH = 100%]
Pressure (altimeter): 29.91 inches Hg (1013.0 mb)
[Sea-level pressure: 1012.7 mb]
Winds: from the NE (50 degrees) at 3 MPH (3 knots; 1.5 m/s)
Visibility: 7 miles (11 km)
Ceiling: 1100 feet AGL
Clouds: broken clouds at 1100 feet AGL
Weather:
SOME DATA ABOVE MAY BE INACCURATE!!!
"$" is an indication the sensor requires maintenance

METAR text: KSKF 220901Z AUTO 05005KT 7SM -RA BKN011 11/11 A2990 RMK AO2 SLP124 $
Conditions at: KSKF (KELLY AFB , TX, US) observed 0901 UTC 22 February 2019
Temperature: 11.0°C (52°F)
Dewpoint: 11.0°C (52°F) [RH = 100%]
Pressure (altimeter): 29.90 inches Hg (1012.6 mb)
[Sea-level pressure: 1012.4 mb]
Winds: from the NE (50 degrees) at 6 MPH (5 knots; 2.6 m/s)
Visibility: 7 miles (11 km)
Ceiling: 1100 feet AGL
Clouds: broken clouds at 1100 feet AGL
Weather: -RA  (light rain)
SOME DATA ABOVE MAY BE INACCURATE!!!
"$" is an indication the sensor requires maintenance

METAR text: KSKF 220856Z AUTO 04007KT 5SM -RA BR SCT012 11/11 A2990 RMK AO2 RAB19E35DZB40E44RAB44 SLP124 P0000 60000 T01090106 55011 $
Conditions at: KSKF (KELLY AFB , TX, US) observed 0856 UTC 22 February 2019
Temperature: 10.9°C (52°F)
Dewpoint: 10.6°C (51°F) [RH = 98%]
Pressure (altimeter): 29.90 inches Hg (1012.6 mb)
[Sea-level pressure: 1012.4 mb]
Winds: from the NE (40 degrees) at 8 MPH (7 knots; 3.6 m/s)
Visibility: 5 miles ( 8 km)
Ceiling: at least 12,000 feet AGL
Clouds: scattered clouds at 1200 feet AGL
Weather: -RA BR  (light rain, mist)
SOME DATA ABOVE MAY BE INACCURATE!!!
"$" is an indication the sensor requires maintenance

METAR text: KSKF 220855Z AUTO 04007KT 5SM -RA BR BKN012 11/11 A2990 RMK AO2 RAB19E35DZB40E44RAB44 BKN V OVC SLP124 $
Conditions at: KSKF (KELLY AFB , TX, US) observed 0855 UTC 22 February 2019
Temperature: 11.0°C (52°F)
Dewpoint: 11.0°C (52°F) [RH = 100%]
Pressure (altimeter): 29.90 inches Hg (1012.6 mb)
[Sea-level pressure: 1012.4 mb]
Winds: from the NE (40 degrees) at 8 MPH (7 knots; 3.6 m/s)
Visibility: 5 miles ( 8 km)
Ceiling: 1200 feet AGL
Clouds: broken clouds at 1200 feet AGL
Weather: -RA BR  (light rain, mist)
SOME DATA ABOVE MAY BE INACCURATE!!!
"$" is an indication the sensor requires maintenance

Forecast for: KSKF (KELLY AFB , TX, US)
Text: TAF KSKF 220200Z 2202/2308 06012KT 9999 BKN015 OVC025 QNH2986INS
Forecast period: 0200 to 0700 UTC 22 February 2019
Forecast type: FROM: standard forecast or significant change
Winds: from the ENE (60 degrees) at 14 MPH (12 knots; 6.2 m/s)
Visibility: 6 or more miles 10+ km)
Ceiling: 1500 feet AGL
Clouds: broken clouds at 1500 feet AGL
overcast cloud deck at 2500 feet AGL
Weather: no significant weather forecast for this period
Text: BECMG 2207/2208 05007KT 6000 BR VCSH OVC007 QNH2992INS
Forecast period: 0700 to 1700 UTC 22 February 2019
Forecast type: BECOMING: Conditions expected to become as follows by 0800 UTC 22 February 2019
Winds: from the NE (50 degrees) at 8 MPH (7 knots; 3.6 m/s)
Visibility: 4 miles (6 km)
Ceiling: 700 feet AGL
Clouds: overcast cloud deck at 700 feet AGL
Weather: BR VCSH  (mist, showers in vicinity)
Text: TEMPO 2213/2218 1600 DZ BR OVC005
Forecast period: 1300 to 1800 UTC 22 February 2019
Forecast type: TEMPORARY: The following changes expected for less than half the time period
Visibility: 0.99 miles (1.59 km)
Ceiling: 500 feet AGL
Clouds: overcast cloud deck at 500 feet AGL
Weather: DZ BR  (moderate drizzle, mist)
Text: BECMG 2217/2218 14006KT 8000 BR OVC012 QNH2990INS
Forecast period: 1700 to 2000 UTC 22 February 2019
Forecast type: BECOMING: Conditions expected to become as follows by 1800 UTC 22 February 2019
Winds: from the SE (140 degrees) at 7 MPH (6 knots; 3.1 m/s)
Visibility: 5 miles (8 km)
Ceiling: 1200 feet AGL
Clouds: overcast cloud deck at 1200 feet AGL
Weather: BR  (mist)
Text: BECMG 2220/2221 13007KT 9999 NSW OVC020 QNH2985INS
Forecast period: 2000 UTC 22 February 2019 to 0100 UTC 23 February 2019
Forecast type: BECOMING: Conditions expected to become as follows by 2100 UTC 22 February 2019
Winds: from the SE (130 degrees) at 8 MPH (7 knots; 3.6 m/s)
Visibility: 6 or more miles 10+ km)
Ceiling: 2000 feet AGL
Clouds: overcast cloud deck at 2000 feet AGL
Weather: NSW  (no significant weather)
Text: BECMG 2301/2302 11006KT 9999 VCSH OVC006 QNH2984INS TX20/2221Z TN10/2211Z
Forecast period: 0100 to 0800 UTC 23 February 2019
Forecast type: BECOMING: Conditions expected to become as follows by 0200 UTC 23 February 2019
Winds: from the ESE (110 degrees) at 7 MPH (6 knots; 3.1 m/s)
Visibility: 6 or more miles 10+ km)
Ceiling: 600 feet AGL
Clouds: overcast cloud deck at 600 feet AGL
Weather: VCSH  (showers in vicinity)

 AIRPORT MAP

 RUNWAY INFORMATION
Runway 15 Runway length 11550 ft Runway width 300 ft
Runway elevation 691 ft Runway displaced threshold 0 ft Runway heading 162
Runway 33 Runway length 11550 ft Runway width 300 ft
Runway elevation 660 ft Runway displaced threshold 0 ft Runway heading 342

 AIRPORT FREQUENCIES
Type APP Name SAN ANTONI Frequency 118.05 MHZ
Type ATIS Name ATIS Frequency 120.45 MHZ
Type DEP Name SAN ANTONI Frequency 125.7 MHZ
Type GND Name GND Frequency 121.8 MHZ
Type PMSV Name PMSV METRO Frequency 23.98 MHZ
Type POST Name AFRC COMD Frequency 143.8 MHZ
Type PTD Name PTD Frequency 130.65 MHZ
Type TWR Name KELLY TWR Frequency 124.3 MHZ

 AIRPORT NEAR NAVIGATION AIDS
Type TACAN Name Kelly Frequency 112000 KHZ

Neither the Department of the Army, nor any other component of the Department of Defense or Federal Government has approved, endorsed, or authorized this promotion, activity, or organization. Virtual United States Army Aviation organization is in no way affiliated with the Department of Defense, Department of the Army, or any other federal or government entity. Virtual United States Army Aviation is a group of flight simulation enthusiasts with the common interest of promoting enjoyment and cameraderie through the simulation of military operations and procedures utilizing several flight simulation platforms.

Copyright © vUSAA 2017-2019 All Rights Reserved